Terminal Aerodrome Forecast
Issued by NWS Missoula, MT

Home | Current Version | Previous Version | Text Only | Print | Product List | Glossary On
Versions: 1 2 3 4 5 6 7 8 9 10 11 12 13 14 15 16 17
030
FTUS45 KMSO 131120
TAFGPI
TAF
KGPI 131120Z 1312/1412 00000KT P6SM VCFG OVC007
     FM131500 00000KT 5SM -SN BR OVC006
     FM131900 VRB03KT 6SM BR BKN013 BKN050
     FM141000 00000KT 5SM BR OVC007=

USA.gov is the U.S. government's official web portal to all federal, state and local government web resources and services.